createdAt,value
2019-05-01T00:00:44.147Z,16.53
2019-05-01T00:03:31.223Z,16.20
2019-05-01T00:06:01.285Z,16.53
2019-05-01T00:08:29.748Z,16.97
2019-05-01T00:10:58.190Z,17.30
2019-05-01T00:13:26.605Z,15.83
2019-05-01T00:15:55.290Z,16.77
2019-05-01T00:18:23.768Z,15.13
2019-05-01T00:20:52.210Z,16.70
2019-05-01T00:23:20.739Z,16.77
2019-05-01T00:25:49.361Z,15.57
2019-05-01T00:28:17.999Z,16.00
2019-05-01T00:30:46.433Z,13.80
2019-05-01T00:33:15.562Z,16.03
2019-05-01T00:35:44.047Z,15.87
2019-05-01T00:38:12.466Z,18.10
2019-05-01T00:40:40.902Z,18.80
2019-05-01T00:43:09.333Z,17.33
2019-05-01T00:45:37.755Z,17.80
2019-05-01T00:48:06.344Z,17.17
2019-05-01T00:50:34.758Z,16.97
2019-05-01T00:53:03.185Z,16.73
2019-05-01T00:55:39.302Z,14.03
2019-05-01T00:58:09.602Z,18.27
2019-05-01T01:00:45.431Z,17.03
2019-05-01T01:03:13.961Z,18.30
2019-05-01T01:05:42.374Z,18.53
2019-05-01T01:08:10.794Z,17.92
2019-05-01T01:10:39.242Z,18.33
2019-05-01T01:13:07.675Z,17.37
2019-05-01T01:15:36.129Z,17.57
2019-05-01T01:18:05.231Z,17.67
2019-05-01T01:20:33.718Z,15.63
2019-05-01T01:23:02.618Z,16.70
2019-05-01T01:25:31.387Z,16.23
2019-05-01T01:27:59.805Z,17.30
2019-05-01T01:30:28.290Z,16.27
2019-05-01T01:32:56.856Z,16.93
2019-05-01T01:35:25.344Z,16.37
2019-05-01T01:37:53.846Z,13.50
2019-05-01T01:40:22.347Z,13.90
2019-05-01T01:42:52.591Z,14.87
2019-05-01T01:45:22.745Z,15.80
2019-05-01T01:48:09.758Z,15.67
2019-05-01T01:50:40.494Z,16.77
2019-05-01T01:53:09.875Z,15.37
2019-05-01T01:55:38.750Z,17.00
2019-05-01T01:58:07.918Z,16.17
2019-05-01T02:00:55.379Z,14.27
2019-05-01T02:03:25.726Z,17.53
2019-05-01T02:05:54.144Z,15.13
2019-05-01T02:08:22.586Z,13.43
2019-05-01T02:10:51.077Z,16.75
2019-05-01T02:13:19.502Z,17.25
2019-05-01T02:15:48.008Z,13.50
2019-05-01T02:18:16.430Z,17.23
2019-05-01T02:20:44.983Z,16.83
2019-05-01T02:23:13.675Z,17.30
2019-05-01T02:25:43.657Z,17.33
2019-05-01T02:28:26.796Z,17.23
2019-05-01T02:31:27.151Z,17.07
2019-05-01T02:33:47.255Z,17.37
2019-05-01T02:36:16.582Z,17.67
2019-05-01T02:38:46.921Z,18.80
2019-05-01T02:41:18.778Z,16.90
2019-05-01T02:43:49.893Z,17.73
2019-05-01T02:46:21.048Z,17.00
2019-05-01T02:49:01.392Z,16.20
2019-05-01T02:51:30.047Z,17.53
2019-05-01T02:54:00.726Z,17.10
2019-05-01T02:56:37.578Z,18.27
2019-05-01T02:59:07.979Z,17.53
2019-05-01T03:01:46.852Z,17.50
2019-05-01T03:04:09.046Z,19.53
2019-05-01T03:06:38.611Z,18.00
2019-05-01T03:09:07.955Z,20.10
2019-05-01T03:11:39.640Z,16.97
2019-05-01T03:14:16.929Z,18.82
2019-05-01T03:16:47.415Z,18.20
2019-05-01T03:19:22.271Z,17.65
2019-05-01T03:21:54.844Z,18.43
2019-05-01T03:24:25.293Z,18.80
2019-05-01T03:26:54.671Z,17.47
2019-05-01T03:29:23.239Z,17.23
2019-05-01T03:32:14.382Z,16.80
2019-05-01T03:34:22.536Z,17.65
2019-05-01T03:36:52.871Z,17.40
2019-05-01T03:39:21.369Z,17.13
2019-05-01T03:41:50.074Z,17.37
2019-05-01T03:44:18.627Z,16.47
2019-05-01T03:46:47.612Z,16.07
2019-05-01T03:49:17.073Z,16.10
2019-05-01T03:51:46.019Z,16.00
2019-05-01T03:54:14.472Z,16.13
2019-05-01T03:56:42.879Z,15.98
2019-05-01T03:59:11.476Z,17.23
2019-05-01T04:01:48.018Z,16.50
2019-05-01T04:04:20.791Z,16.40
2019-05-01T04:06:49.951Z,16.77
2019-05-01T04:09:18.540Z,17.23
2019-05-01T04:11:47.330Z,16.50
2019-05-01T04:14:16.081Z,17.80
2019-05-01T04:16:46.435Z,18.90
2019-05-01T04:19:14.878Z,19.73
2019-05-01T04:21:44.936Z,18.83
2019-05-01T04:24:13.552Z,20.25
2019-05-01T04:26:42.054Z,19.83
2019-05-01T04:29:15.071Z,21.87
2019-05-01T04:32:04.010Z,21.13
2019-05-01T04:34:36.963Z,21.60
2019-05-01T04:37:09.744Z,20.83
2019-05-01T04:39:38.191Z,20.43
2019-05-01T04:42:06.777Z,20.80
2019-05-01T04:44:35.211Z,20.27
2019-05-01T04:47:03.880Z,19.67
2019-05-01T04:49:32.426Z,20.07
2019-05-01T04:52:01.910Z,22.23
2019-05-01T04:54:30.414Z,19.87
2019-05-01T04:56:59.067Z,22.60
2019-05-01T04:59:27.495Z,21.03
2019-05-01T05:01:58.016Z,22.40
2019-05-01T05:04:27.208Z,21.63
2019-05-01T05:06:55.948Z,20.60
2019-05-01T05:09:39.724Z,22.47
2019-05-01T05:12:10.318Z,22.73
2019-05-01T05:14:40.467Z,22.43
2019-05-01T05:17:10.710Z,24.47
2019-05-01T05:19:39.298Z,23.10
2019-05-01T05:22:07.850Z,23.67
2019-05-01T05:24:37.027Z,24.27
2019-05-01T05:27:05.982Z,23.70
2019-05-01T05:29:35.778Z,24.97
2019-05-01T05:32:06.670Z,26.90
2019-05-01T05:34:37.794Z,25.67
2019-05-01T05:37:13.155Z,24.03
2019-05-01T05:39:48.769Z,25.33
2019-05-01T05:42:17.533Z,26.40
2019-05-01T05:44:47.707Z,26.63
2019-05-01T05:47:17.083Z,26.93
2019-05-01T05:49:46.248Z,28.57
2019-05-01T05:52:33.734Z,27.32
2019-05-01T05:55:05.230Z,27.60
2019-05-01T05:57:57.596Z,25.70
2019-05-01T06:00:37.194Z,24.73
2019-05-01T06:03:11.166Z,23.80
2019-05-01T06:05:46.202Z,24.57
2019-05-01T06:08:18.780Z,25.57
2019-05-01T06:10:58.535Z,23.87
2019-05-01T06:13:43.356Z,23.70
2019-05-01T06:16:16.127Z,22.05
2019-05-01T06:18:54.495Z,22.33
2019-05-01T06:21:34.735Z,22.67
2019-05-01T06:24:06.628Z,23.10
2019-05-01T06:26:39.380Z,22.33
2019-05-01T06:29:06.661Z,22.20
2019-05-01T06:31:35.487Z,21.17
2019-05-01T06:34:04.878Z,21.87
2019-05-01T06:36:33.975Z,24.27
2019-05-01T06:39:06.822Z,24.77
2019-05-01T06:41:42.074Z,21.90
2019-05-01T06:44:10.027Z,23.77
2019-05-01T06:46:42.835Z,23.47
2019-05-01T06:49:15.546Z,24.07
2019-05-01T06:51:53.390Z,22.13
2019-05-01T06:54:23.995Z,20.97
2019-05-01T06:56:52.673Z,21.87
2019-05-01T06:59:26.274Z,22.52
2019-05-01T07:01:53.313Z,21.60
2019-05-01T07:04:22.862Z,22.67
2019-05-01T07:06:51.574Z,23.00
2019-05-01T07:09:27.850Z,23.05
2019-05-01T07:11:52.629Z,25.20
2019-05-01T07:14:21.708Z,22.70
2019-05-01T07:16:51.953Z,22.63
2019-05-01T07:19:22.097Z,21.20
2019-05-01T07:21:50.662Z,21.67
2019-05-01T07:24:19.223Z,19.75
2019-05-01T07:26:49.126Z,21.00
2019-05-01T07:29:19.490Z,21.67
2019-05-01T07:31:47.914Z,21.37
2019-05-01T07:34:17.058Z,21.03
2019-05-01T07:36:50.244Z,21.73
2019-05-01T07:39:16.040Z,21.37
2019-05-01T07:41:44.461Z,20.33
2019-05-01T07:44:33.822Z,19.43
2019-05-01T07:47:11.046Z,18.80
2019-05-01T07:49:54.731Z,17.20
2019-05-01T07:52:24.458Z,17.83
2019-05-01T07:54:54.519Z,17.23
2019-05-01T07:57:23.325Z,17.77
2019-05-01T07:59:52.284Z,18.20
2019-05-01T08:02:20.832Z,18.27
2019-05-01T08:04:49.402Z,16.70
2019-05-01T08:07:17.831Z,16.07
2019-05-01T08:09:50.232Z,15.93
2019-05-01T08:12:18.855Z,15.80
2019-05-01T08:14:47.856Z,15.90
2019-05-01T08:17:21.146Z,17.85
2019-05-01T08:19:51.211Z,17.67
2019-05-01T08:22:21.291Z,17.52
2019-05-01T08:24:53.751Z,16.83
2019-05-01T08:27:21.714Z,16.80
2019-05-01T08:30:04.218Z,17.32
2019-05-01T08:32:52.619Z,15.17
2019-05-01T08:35:22.774Z,17.98
2019-05-01T08:37:53.785Z,17.17
2019-05-01T08:40:21.783Z,18.83
2019-05-01T08:42:50.367Z,18.23
2019-05-01T08:45:40.894Z,17.73
2019-05-01T08:48:17.496Z,17.23
2019-05-01T08:50:45.990Z,17.47
2019-05-01T08:53:18.035Z,18.33
2019-05-01T08:55:46.924Z,18.73
2019-05-01T08:58:15.973Z,18.53
2019-05-01T09:00:44.573Z,18.47
2019-05-01T09:03:13.698Z,19.70
2019-05-01T09:05:44.827Z,17.60
2019-05-01T09:08:13.257Z,18.35
2019-05-01T09:10:41.699Z,17.87
2019-05-01T09:13:10.144Z,18.53
2019-05-01T09:15:39.323Z,19.50
2019-05-01T09:18:07.762Z,18.13
2019-05-01T09:20:37.596Z,21.30
2019-05-01T09:23:09.398Z,19.80
2019-05-01T09:25:37.816Z,20.53
2019-05-01T09:28:19.791Z,19.60
2019-05-01T09:31:01.386Z,19.90
2019-05-01T09:33:26.113Z,19.80
2019-05-01T09:35:56.061Z,19.13
2019-05-01T09:38:24.655Z,21.47
2019-05-01T09:40:53.077Z,20.30
2019-05-01T09:43:21.655Z,20.57
2019-05-01T09:45:50.119Z,22.30
2019-05-01T09:48:18.606Z,21.40
2019-05-01T09:51:07.063Z,22.53
2019-05-01T09:53:37.127Z,21.43
2019-05-01T09:56:07.778Z,20.27
2019-05-01T09:58:37.389Z,21.33
2019-05-01T10:01:05.823Z,22.47
2019-05-01T10:03:34.254Z,20.20
2019-05-01T10:06:02.702Z,22.93
2019-05-01T10:08:34.922Z,21.45
2019-05-01T10:11:05.221Z,23.43
2019-05-01T10:13:31.466Z,23.53
2019-05-01T10:16:01.185Z,23.43
2019-05-01T10:18:29.614Z,20.73
2019-05-01T10:20:58.164Z,21.93
2019-05-01T10:23:26.705Z,22.47
2019-05-01T10:25:59.809Z,23.43
2019-05-01T10:28:50.156Z,20.93
2019-05-01T10:31:26.925Z,21.53
2019-05-01T10:34:07.699Z,21.43
2019-05-01T10:36:37.601Z,21.07
2019-05-01T10:39:08.334Z,21.73
2019-05-01T10:41:41.026Z,20.17
2019-05-01T10:44:06.937Z,19.37
2019-05-01T10:46:35.358Z,19.77
2019-05-01T10:49:04.155Z,21.77
2019-05-01T10:51:32.579Z,20.77
2019-05-01T10:54:01.004Z,20.83
2019-05-01T10:56:29.470Z,21.13
2019-05-01T10:58:57.899Z,18.87
2019-05-01T11:01:46.387Z,20.57
2019-05-01T11:04:14.878Z,20.07
2019-05-01T11:06:43.318Z,20.63
2019-05-01T11:09:12.326Z,19.63
2019-05-01T11:11:42.291Z,19.10
2019-05-01T11:14:10.712Z,22.30
2019-05-01T11:16:39.175Z,21.37
2019-05-01T11:19:08.983Z,22.50
2019-05-01T11:21:37.451Z,22.10
2019-05-01T11:24:06.172Z,22.15
2019-05-01T11:26:34.603Z,23.27
2019-05-01T11:29:03.094Z,23.93
2019-05-01T11:31:38.952Z,23.53
2019-05-01T11:34:11.770Z,22.13
2019-05-01T11:36:58.279Z,23.57
2019-05-01T11:39:43.032Z,23.50
2019-05-01T11:42:15.331Z,24.77
2019-05-01T11:44:43.839Z,24.33
2019-05-01T11:47:12.260Z,26.60
2019-05-01T11:49:40.775Z,25.33
2019-05-01T11:52:09.204Z,24.00
2019-05-01T11:54:38.641Z,23.37
2019-05-01T11:57:07.057Z,27.10
2019-05-01T11:59:35.551Z,25.47
2019-05-01T12:02:04.041Z,24.97
2019-05-01T12:04:32.656Z,23.83
2019-05-01T12:07:01.078Z,26.40
2019-05-01T12:09:29.511Z,27.63
2019-05-01T12:11:59.655Z,27.97
2019-05-01T12:14:28.088Z,25.37
2019-05-01T12:17:00.867Z,26.07
2019-05-01T12:19:33.395Z,25.57
2019-05-01T12:22:01.816Z,25.53
2019-05-01T12:24:30.571Z,23.03
2019-05-01T12:26:59.038Z,22.70
2019-05-01T12:29:27.463Z,26.63
2019-05-01T12:31:55.889Z,25.30
2019-05-01T12:34:24.330Z,25.23
2019-05-01T12:36:54.418Z,27.63
2019-05-01T12:39:22.854Z,24.77
2019-05-01T12:41:55.651Z,27.97
2019-05-01T12:44:24.079Z,28.00
2019-05-01T12:46:54.206Z,29.50
2019-05-01T12:49:22.659Z,30.53
2019-05-01T12:51:52.731Z,27.97
2019-05-01T12:54:34.932Z,28.38
2019-05-01T12:57:03.814Z,28.87
2019-05-01T12:59:32.294Z,28.47
2019-05-01T13:02:00.859Z,27.23
2019-05-01T13:04:29.290Z,30.90
2019-05-01T13:06:59.072Z,31.97
2019-05-01T13:09:27.503Z,32.07
2019-05-01T13:11:56.007Z,31.60
2019-05-01T13:14:24.430Z,29.97
2019-05-01T13:16:52.950Z,31.63
2019-05-01T13:19:21.375Z,31.17
2019-05-01T13:21:49.916Z,28.47
2019-05-01T13:24:18.344Z,31.50
2019-05-01T13:27:05.153Z,30.97
2019-05-01T13:29:38.190Z,32.40
2019-05-01T13:32:08.333Z,30.27
2019-05-01T13:34:36.761Z,33.73
2019-05-01T13:37:05.534Z,30.40
2019-05-01T13:39:33.961Z,28.90
2019-05-01T13:42:02.454Z,33.00
2019-05-01T13:44:30.914Z,33.73
2019-05-01T13:47:01.907Z,32.13
2019-05-01T13:49:30.397Z,31.33
2019-05-01T13:51:59.170Z,31.50
2019-05-01T13:54:27.598Z,34.63
2019-05-01T13:56:56.030Z,32.67
2019-05-01T13:59:24.467Z,30.13
2019-05-01T14:01:52.959Z,36.43
2019-05-01T14:04:22.258Z,31.75
2019-05-01T14:06:50.709Z,30.27
2019-05-01T14:09:23.598Z,32.53
2019-05-01T14:11:52.084Z,31.67
2019-05-01T14:14:20.669Z,33.50
2019-05-01T14:16:49.089Z,38.55
2019-05-01T14:19:17.514Z,34.18
2019-05-01T14:21:47.606Z,33.93
2019-05-01T14:24:23.460Z,35.60
2019-05-01T14:26:52.933Z,37.27
2019-05-01T14:29:21.352Z,35.40
2019-05-01T14:31:49.775Z,34.67
2019-05-01T14:34:18.226Z,35.57
2019-05-01T14:36:46.650Z,34.30
2019-05-01T14:39:15.243Z,33.00
2019-05-01T14:41:43.685Z,33.77
2019-05-01T14:44:12.105Z,33.38
2019-05-01T14:46:40.536Z,33.53
2019-05-01T14:49:09.158Z,29.60
2019-05-01T14:51:37.668Z,35.90
2019-05-01T14:54:06.090Z,35.00
2019-05-01T14:56:34.602Z,33.80
2019-05-01T14:59:03.302Z,35.57
2019-05-01T15:01:31.745Z,30.87
2019-05-01T15:04:00.266Z,33.30
2019-05-01T15:06:28.783Z,32.93
2019-05-01T15:08:59.263Z,35.33
2019-05-01T15:11:27.432Z,33.70
2019-05-01T15:13:57.498Z,35.90
2019-05-01T15:16:27.580Z,33.10
2019-05-01T15:19:12.641Z,35.00
2019-05-01T15:21:41.068Z,33.70
2019-05-01T15:24:09.530Z,34.37
2019-05-01T15:26:37.976Z,32.13
2019-05-01T15:29:06.576Z,28.40
2019-05-01T15:31:35.001Z,29.15
2019-05-01T15:34:03.782Z,29.43
2019-05-01T15:36:32.217Z,29.60
2019-05-01T15:39:01.420Z,27.00
2019-05-01T15:41:48.104Z,27.40
2019-05-01T15:44:17.602Z,26.43
2019-05-01T15:46:46.174Z,24.33
2019-05-01T15:49:14.633Z,22.27
2019-05-01T15:51:43.134Z,21.23
2019-05-01T15:54:11.646Z,21.17
2019-05-01T15:56:40.078Z,19.93
2019-05-01T15:59:08.534Z,19.80
2019-05-01T16:01:36.970Z,17.97
2019-05-01T16:04:05.783Z,19.50
2019-05-01T16:06:34.228Z,18.77
2019-05-01T16:09:02.789Z,19.60
2019-05-01T16:11:32.913Z,20.53
2019-05-01T16:14:01.902Z,18.50
2019-05-01T16:16:30.340Z,16.63
2019-05-01T16:18:59.070Z,18.57
2019-05-01T16:21:27.514Z,17.43
2019-05-01T16:23:55.953Z,19.45
2019-05-01T16:26:24.458Z,15.17
2019-05-01T16:28:52.895Z,15.87
2019-05-01T16:31:21.695Z,16.30
2019-05-01T16:33:50.134Z,14.83
2019-05-01T16:36:20.402Z,14.67
2019-05-01T16:38:59.547Z,14.90
2019-05-01T16:41:29.684Z,16.83
2019-05-01T16:43:58.121Z,15.23
2019-05-01T16:46:26.571Z,16.93
2019-05-01T16:48:55.058Z,15.53
2019-05-01T16:51:23.503Z,15.70
2019-05-01T16:53:52.086Z,15.33
2019-05-01T16:56:20.697Z,16.00
2019-05-01T16:58:49.187Z,15.73
2019-05-01T17:01:28.512Z,13.98
2019-05-01T17:04:04.390Z,13.53
2019-05-01T17:06:49.705Z,14.70
2019-05-01T17:09:22.451Z,14.93
2019-05-01T17:11:50.958Z,14.63
2019-05-01T17:14:19.724Z,14.53
2019-05-01T17:16:48.147Z,13.13
2019-05-01T17:19:16.581Z,14.03
2019-05-01T17:21:45.042Z,13.97
2019-05-01T17:24:13.472Z,13.43
2019-05-01T17:26:41.901Z,13.97
2019-05-01T17:29:10.346Z,14.77
2019-05-01T17:31:38.777Z,15.17
2019-05-01T17:34:09.734Z,14.07
2019-05-01T17:36:38.276Z,14.83
2019-05-01T17:39:06.766Z,15.87
2019-05-01T17:41:35.190Z,15.50
2019-05-01T17:44:03.637Z,14.23
2019-05-01T17:46:32.081Z,14.70
2019-05-01T17:49:04.184Z,14.37
2019-05-01T17:51:30.658Z,12.90
2019-05-01T17:53:59.142Z,13.93
2019-05-01T17:56:28.582Z,15.00
2019-05-01T17:58:57.341Z,14.97
2019-05-01T18:01:45.477Z,14.73
2019-05-01T18:04:27.387Z,16.65
2019-05-01T18:06:55.824Z,13.60
2019-05-01T18:09:25.796Z,14.27
2019-05-01T18:11:54.238Z,13.27
2019-05-01T18:14:22.862Z,14.37
2019-05-01T18:16:51.300Z,15.10
2019-05-01T18:19:19.754Z,14.90
2019-05-01T18:21:51.771Z,14.60
2019-05-01T18:24:34.129Z,14.83
2019-05-01T18:27:20.545Z,13.33
2019-05-01T18:29:50.694Z,11.97
2019-05-01T18:32:20.878Z,13.75
2019-05-01T18:34:49.469Z,15.97
2019-05-01T18:37:22.031Z,14.33
2019-05-01T18:39:50.808Z,13.85
2019-05-01T18:42:19.236Z,14.60
2019-05-01T18:44:48.906Z,14.23
2019-05-01T18:47:17.551Z,14.73
2019-05-01T18:49:45.975Z,14.83
2019-05-01T18:52:14.582Z,15.77
2019-05-01T18:54:43.021Z,15.70
2019-05-01T18:57:11.694Z,15.90
2019-05-01T18:59:40.166Z,15.87
2019-05-01T19:02:08.591Z,14.23
2019-05-01T19:04:37.019Z,13.90
2019-05-01T19:07:05.464Z,13.80
2019-05-01T19:09:36.668Z,12.90
2019-05-01T19:12:06.631Z,13.40
2019-05-01T19:14:35.086Z,12.60
2019-05-01T19:17:03.598Z,12.30
2019-05-01T19:19:32.118Z,13.90
2019-05-01T19:22:01.946Z,12.57
2019-05-01T19:24:32.547Z,12.90
2019-05-01T19:27:00.644Z,12.37
2019-05-01T19:29:32.058Z,14.40
2019-05-01T19:31:59.534Z,10.97
2019-05-01T19:34:28.030Z,12.30
2019-05-01T19:36:57.550Z,12.40
2019-05-01T19:39:26.061Z,11.53
2019-05-01T19:41:55.971Z,12.83
2019-05-01T19:44:24.482Z,13.30
2019-05-01T19:46:52.985Z,12.10
2019-05-01T19:49:24.515Z,11.48
2019-05-01T19:51:55.467Z,13.13
2019-05-01T19:54:23.019Z,12.53
2019-05-01T19:56:51.946Z,12.40
2019-05-01T19:59:20.387Z,10.60
2019-05-01T20:01:49.541Z,11.57
2019-05-01T20:04:18.379Z,12.73
2019-05-01T20:06:46.825Z,13.33
2019-05-01T20:09:15.588Z,12.83
2019-05-01T20:11:44.020Z,13.90
2019-05-01T20:14:12.639Z,13.22
2019-05-01T20:16:41.174Z,13.37
2019-05-01T20:19:09.596Z,11.57
2019-05-01T20:21:38.058Z,16.40
2019-05-01T20:24:09.334Z,17.53
2019-05-01T20:26:36.630Z,16.33
2019-05-01T20:29:07.779Z,14.75
2019-05-01T20:31:35.440Z,17.03
2019-05-01T20:34:03.939Z,19.33
2019-05-01T20:36:32.391Z,17.92
2019-05-01T20:39:00.820Z,16.73
2019-05-01T20:41:29.516Z,17.13
2019-05-01T20:43:57.953Z,15.77
2019-05-01T20:46:28.142Z,14.33
2019-05-01T20:49:01.457Z,14.27
2019-05-01T20:51:26.888Z,15.73
2019-05-01T20:53:56.946Z,13.10
2019-05-01T20:56:29.783Z,15.80
2019-05-01T20:59:03.305Z,14.93
2019-05-01T21:01:30.566Z,14.90
2019-05-01T21:04:18.935Z,15.70
2019-05-01T21:07:05.532Z,16.07
2019-05-01T21:09:47.295Z,14.97
2019-05-01T21:12:09.026Z,15.23
2019-05-01T21:14:37.450Z,15.47
2019-05-01T21:17:09.607Z,15.37
2019-05-01T21:19:37.762Z,15.80
2019-05-01T21:22:06.388Z,16.93
2019-05-01T21:24:34.822Z,16.37
2019-05-01T21:27:03.557Z,16.57
2019-05-01T21:29:34.190Z,15.63
2019-05-01T21:32:03.794Z,13.20
2019-05-01T21:34:33.341Z,17.20
2019-05-01T21:37:01.921Z,15.47
2019-05-01T21:39:30.409Z,16.00
2019-05-01T21:41:59.004Z,15.77
2019-05-01T21:44:28.966Z,17.10
2019-05-01T21:46:57.496Z,15.47
2019-05-01T21:49:28.620Z,16.82
2019-05-01T21:51:56.082Z,15.90
2019-05-01T21:54:24.510Z,16.17
2019-05-01T21:56:52.933Z,17.87
2019-05-01T21:59:21.451Z,17.67
2019-05-01T22:01:49.958Z,15.90
2019-05-01T22:04:18.384Z,14.00
2019-05-01T22:06:51.925Z,15.67
2019-05-01T22:09:21.634Z,16.33
2019-05-01T22:11:50.126Z,16.93
2019-05-01T22:14:22.966Z,17.83
2019-05-01T22:16:53.212Z,16.57
2019-05-01T22:19:23.194Z,14.63
2019-05-01T22:21:56.267Z,16.03
2019-05-01T22:24:29.384Z,16.03
2019-05-01T22:27:08.312Z,14.10
2019-05-01T22:29:44.420Z,15.80
2019-05-01T22:32:17.412Z,16.13
2019-05-01T22:34:47.475Z,17.80
2019-05-01T22:37:16.022Z,17.85
2019-05-01T22:39:46.318Z,19.40
2019-05-01T22:42:15.015Z,12.60
2019-05-01T22:44:43.520Z,18.63
2019-05-01T22:47:15.129Z,15.90
2019-05-01T22:49:42.086Z,13.93
2019-05-01T22:52:16.780Z,16.02
2019-05-01T22:54:48.866Z,15.60
2019-05-01T22:57:15.486Z,15.70
2019-05-01T22:59:43.934Z,18.80
2019-05-01T23:02:24.088Z,18.83
2019-05-01T23:04:52.106Z,18.67
2019-05-01T23:07:20.370Z,18.70
2019-05-01T23:09:48.793Z,13.50
2019-05-01T23:12:17.218Z,19.17
2019-05-01T23:14:45.727Z,16.27
2019-05-01T23:17:18.586Z,20.23
2019-05-01T23:19:47.005Z,16.63
2019-05-01T23:22:15.447Z,19.80
2019-05-01T23:24:43.868Z,17.07
2019-05-01T23:27:12.292Z,19.95
2019-05-01T23:29:41.058Z,16.80
2019-05-01T23:32:09.642Z,19.33
2019-05-01T23:34:38.067Z,14.37
2019-05-01T23:37:06.528Z,14.23
2019-05-01T23:39:40.210Z,18.17
2019-05-01T23:42:05.151Z,15.37
2019-05-01T23:44:33.619Z,20.50
2019-05-01T23:47:02.036Z,20.97
2019-05-01T23:49:30.456Z,16.57
2019-05-01T23:52:03.351Z,20.10
2019-05-01T23:54:29.314Z,18.10
2019-05-01T23:56:57.739Z,19.40
2019-05-01T23:59:26.186Z,18.60
